»·PEaware :: SAS226 KSBA-KSAN

SAS226 :: KSBA-KSAN

FLIGHT INFORMATION

Flight Status: Arrived
Operator:
SAS
More flights by this operator :: More flights under this callsign
Pilot: Anonymous 9219 (9219)
Aircraft: MCDONNELL-DOUGLAS MD-88
(MD88)
More flights by this aircraft type
Origin: KSBA Santa Barbara Mun
United States
Destination: KSAN San Diego Intl-Lindbergh
United States
More flights between these airports :: More routes between these airports
Route: KWANG VTU V208 SXC V208 LAX118 CARDI MZB320 MZB
File this flight plan on PilotEdge
Remarks:
Altitude:
(Current/Filed)
11,000ft
Speed:
(Current/Filed)
440kts
Departed: 08-Dec-15 06:53 PM
Arrived: 08-Dec-15 07:36 PM
Distance/Time
Traveled:
166nm/0:43
Distance/Time
To Go:
Arrived

Flight Plot

Page will automatically refresh every two minutes.


Map Options




Map Legend


Flown Route
Filed Route
Departure Airport
Arrival Airport
Navaid (VOR, NDB)
Fix

Horizontal Profiles

Position Reports

Time Latitude Longitude Heading Altitude Ground
Speed
08-Dec-15 17:50 34.425430 -119.837258 148 19ft 0kts
08-Dec-15 17:51 34.425430 -119.837258 148 19ft 0kts
08-Dec-15 17:52 34.425430 -119.837258 148 19ft 0kts
08-Dec-15 17:53 34.425430 -119.837258 148 19ft 0kts
08-Dec-15 17:54 34.425430 -119.837258 148 19ft 0kts
08-Dec-15 17:55 34.425430 -119.837258 148 19ft 0kts
08-Dec-15 17:56 34.425430 -119.837258 148 19ft 0kts
08-Dec-15 17:57 34.425430 -119.837258 148 19ft 0kts
08-Dec-15 17:58 34.425430 -119.837258 148 19ft 0kts
08-Dec-15 17:59 34.425430 -119.837258 148 19ft 0kts
08-Dec-15 18:06 34.425424 -119.837263 148 19ft 0kts
08-Dec-15 18:07 34.425424 -119.837263 148 19ft 0kts
08-Dec-15 18:08 34.425424 -119.837263 148 19ft 0kts
08-Dec-15 18:09 34.425424 -119.837263 148 19ft 0kts
08-Dec-15 18:10 34.425424 -119.837263 148 19ft 0kts
08-Dec-15 18:11 34.425424 -119.837263 148 19ft 0kts
08-Dec-15 18:12 34.425424 -119.837263 148 19ft 0kts
08-Dec-15 18:13 34.425424 -119.837263 148 19ft 0kts
08-Dec-15 18:14 34.425424 -119.837263 148 19ft 0kts
08-Dec-15 18:15 34.425424 -119.837263 148 19ft 0kts
08-Dec-15 18:16 34.425424 -119.837263 148 19ft 0kts
08-Dec-15 18:17 34.425424 -119.837263 148 19ft 0kts
08-Dec-15 18:18 34.425424 -119.837263 148 19ft 0kts
08-Dec-15 18:19 34.425424 -119.837263 148 19ft 0kts
08-Dec-15 18:20 34.425424 -119.837263 148 19ft 0kts
08-Dec-15 18:21 34.425424 -119.837263 148 19ft 0kts
08-Dec-15 18:22 34.425424 -119.837263 148 19ft 0kts
08-Dec-15 18:23 34.425424 -119.837263 148 19ft 0kts
08-Dec-15 18:24 34.425424 -119.837263 148 19ft 0kts
08-Dec-15 18:25 34.425424 -119.837263 148 19ft 0kts
08-Dec-15 18:26 34.425424 -119.837263 148 19ft 0kts
08-Dec-15 18:27 34.425424 -119.837263 148 19ft 0kts
08-Dec-15 18:28 34.425424 -119.837263 148 19ft 0kts
08-Dec-15 18:29 34.425424 -119.837263 148 19ft 0kts
08-Dec-15 18:30 34.425424 -119.837263 148 19ft 0kts
08-Dec-15 18:31 34.425424 -119.837263 148 19ft 0kts
08-Dec-15 18:32 34.425424 -119.837263 148 19ft 0kts
08-Dec-15 18:33 34.425424 -119.837263 148 19ft 0kts
08-Dec-15 18:34 34.425424 -119.837263 148 19ft 0kts
08-Dec-15 18:35 34.425424 -119.837263 148 19ft 0kts
08-Dec-15 18:36 34.425424 -119.837263 148 19ft 0kts
08-Dec-15 18:37 34.425424 -119.837263 148 19ft 0kts
08-Dec-15 18:38 34.425424 -119.837263 148 19ft 0kts
08-Dec-15 18:39 34.425424 -119.837263 148 19ft 0kts
08-Dec-15 18:40 34.425424 -119.837263 148 19ft 0kts
08-Dec-15 18:41 34.425424 -119.837263 148 19ft 0kts
08-Dec-15 18:42 34.425424 -119.837263 148 19ft 0kts
08-Dec-15 18:43 34.425424 -119.837263 148 19ft 0kts
08-Dec-15 18:44 34.425606 -119.837469 102 19ft 3kts
08-Dec-15 18:45 34.425136 -119.837841 343 19ft 0kts
08-Dec-15 18:46 34.425318 -119.837908 343 19ft 6kts
08-Dec-15 18:47 34.426762 -119.836134 89 19ft 7kts
08-Dec-15 18:48 34.427041 -119.834668 7 19ft 0kts
08-Dec-15 18:49 34.427878 -119.835231 271 19ft 3kts
08-Dec-15 18:50 34.426868 -119.874631 265 716ft 197kts
08-Dec-15 18:51 34.416986 -119.953678 261 1904ft 310kts
08-Dec-15 18:52 34.389474 -120.046501 229 5840ft 253kts
08-Dec-15 18:53 34.326663 -120.084257 187 7989ft 266kts
08-Dec-15 18:54 34.278488 -120.037594 82 8025ft 264kts
08-Dec-15 18:55 34.286219 -119.949468 82 7991ft 263kts
08-Dec-15 18:56 34.294120 -119.859786 82 9704ft 272kts
08-Dec-15 18:57 34.303024 -119.757885 82 10927ft 313kts
08-Dec-15 18:58 34.312297 -119.650161 82 10988ft 357kts
08-Dec-15 18:59 34.310550 -119.524546 108 10969ft 383kts
08-Dec-15 19:00 34.265332 -119.408881 115 10975ft 383kts
08-Dec-15 19:01 34.217748 -119.294707 116 10988ft 380kts
08-Dec-15 19:02 34.169935 -119.180442 116 10992ft 380kts
08-Dec-15 19:03 34.122316 -119.066860 115 10991ft 381kts
08-Dec-15 19:04 34.041398 -118.986312 144 10992ft 381kts
08-Dec-15 19:05 33.955328 -118.912654 144 10992ft 381kts
08-Dec-15 19:06 33.869395 -118.838770 145 10990ft 381kts
08-Dec-15 19:07 33.787539 -118.762175 130 10994ft 382kts
08-Dec-15 19:08 33.699402 -118.710600 191 11015ft 380kts
08-Dec-15 19:09 33.595440 -118.734089 191 10992ft 379kts
08-Dec-15 19:10 33.491813 -118.756365 180 11000ft 382kts
08-Dec-15 19:11 33.421279 -118.675361 114 11048ft 384kts
08-Dec-15 19:12 33.376599 -118.559451 114 11044ft 384kts
08-Dec-15 19:13 33.339290 -118.441010 85 11057ft 380kts
08-Dec-15 19:14 33.356210 -118.318319 86 11054ft 380kts
08-Dec-15 19:15 33.345032 -118.195813 97 11030ft 380kts
08-Dec-15 19:16 33.328102 -118.070791 98 11029ft 381kts
08-Dec-15 19:17 33.311095 -117.946172 97 11013ft 376kts
08-Dec-15 19:18 33.294766 -117.826477 98 10992ft 372kts
08-Dec-15 19:19 33.277888 -117.704640 98 10991ft 371kts
08-Dec-15 19:20 33.259171 -117.583175 112 10972ft 372kts
08-Dec-15 19:21 33.190878 -117.489915 132 10991ft 375kts
08-Dec-15 19:22 33.113965 -117.409169 154 9675ft 338kts
08-Dec-15 19:23 33.038089 -117.367186 154 8264ft 270kts
08-Dec-15 19:24 32.973925 -117.331568 153 6946ft 250kts
08-Dec-15 19:25 32.911625 -117.297031 154 5643ft 244kts
08-Dec-15 19:26 32.850899 -117.263408 153 4914ft 236kts
08-Dec-15 19:27 32.803240 -117.224287 131 4756ft 186kts
08-Dec-15 19:28 32.774813 -117.172177 115 3073ft 187kts
08-Dec-15 19:29 32.754920 -117.117863 111 1990ft 166kts
08-Dec-15 19:30 32.719484 -117.094881 206 2055ft 166kts
08-Dec-15 19:31 32.721416 -117.139637 292 948ft 147kts
08-Dec-15 19:32 32.731913 -117.183004 286 33ft 131kts
08-Dec-15 19:33 32.736284 -117.201672 245 23ft 12kts
08-Dec-15 19:34 32.735764 -117.202121 199 23ft 0kts
08-Dec-15 19:35 32.734331 -117.202606 194 23ft 10kts
08-Dec-15 19:36 32.733753 -117.203451 267 23ft 0kts

Navigation Log

Ident Type
1. KSBA Airport
2. KWANG Fix
3. VTU Navaid
4. WEEZL Fix
5. SXC Navaid
6. CARDI Fix
7. MZB Navaid
8. KSAN Airport